Hadley, PA (16130)

4:50 AM EDT on October 21, 2014 (GMT -0400)
KE3JP Mike | Change Station
CLOSE
Current Station
Personal Weather Station
Location: Greenville, PA
Elevation: 1145 ft
Nearby Weather Stations

Elev 1145 ft 41.45 °N, 80.40 °W | Updated 43 seconds ago

Overcast
Overcast
50.7 °F
Feels Like 50.7 °F
N
2.2
Wind Variable Wind from NW
Gusts 3.1 mph

Today
High -- | Low -- °F
--% Chance of Precip.
Yesterday
High -- | Low -- °F
Precip. -- in
7:39 AM 6:30 PM
Waning Crescent, 6% visible
Pressure 29.81 in
Visibility 3.0 miles
Clouds Overcast 300 ft
Dew Point 50 °F
Humidity 99%
Rainfall 0.09 in
Snow Depth Not available.
UV 0 out of 12
Pollen .50 out of 12
Air Quality Not available.
Flu Activity Sporadic
SPECI KGKJ 210839Z AUTO 00000KT 3SM BR OVC003 10/09 A2981 RMK AO2 T01000089 TSNO

More Conditions Fewer Conditions

Pressure 29.81 in
Visibility 3.0 miles
Clouds Overcast 300 ft
Dew Point 50 °F
Humidity 99%
Rainfall 0.09 in
Snow Depth Not available.
UV 0 out of 12
Pollen .50 out of 12
Air Quality Not available.
Flu Activity Sporadic
SPECI KGKJ 210839Z AUTO 00000KT 3SM BR OVC003 10/09 A2981 RMK AO2 T01000089 TSNO

More Conditions Fewer Conditions

10-Day Weather Forecast

Almanac

Astronomy

Oct. 21, 2014 Rise Set
Actual Time 7:39 AM EDT 6:30 PM EDT
Civil Twilight 7:11 AM EDT 6:59 PM EDT
Nautical Twilight 6:39 AM EDT 7:31 PM EDT
Astronomical Twilight 6:07 AM EDT 8:03 PM EDT
Moon 5:20 AM EDT 5:25 PM EDT
Length of Visible Light 11h 47m
Length of Day
10h 51m
Tomorrow will be 2m 36s shorter.
Waning Crescent, 6% of the Moon is Illuminated
Today
Waning Crescent
Oct 23
New
Oct 30
First Quarter
Nov 6
Full
Nov 14
Last Quarter

Today's Extremes

State Highs State Lows

Community

WunderPhotos

Upload Photos

1,763,619 photos uploaded!

Nearby

Snow Depth

Station Depth Elevation
No new snow has been reported.

Earthquake Activity

City Distance Mag. Time & Date
No recent earthquake activity has been reported nearby.
Minimum magnitude displayed is 2.5.

Coastal Water Temperatures

Place Temperature
No Stations Reporting

Nearby Weather Stations